createdAt,value
2023-04-20T00:01:27.873Z,7.37
2023-04-20T00:04:01.129Z,7.70
2023-04-20T00:06:34.462Z,7.90
2023-04-20T00:09:09.242Z,7.23
2023-04-20T00:11:42.396Z,7.33
2023-04-20T00:14:16.025Z,7.23
2023-04-20T00:16:49.978Z,7.47
2023-04-20T00:19:23.207Z,6.77
2023-04-20T00:21:56.294Z,6.90
2023-04-20T00:24:30.893Z,6.70
2023-04-20T00:27:04.064Z,6.10
2023-04-20T00:29:37.124Z,6.40
2023-04-20T00:32:10.363Z,6.73
2023-04-20T00:34:43.456Z,6.50
2023-04-20T00:37:16.495Z,7.20
2023-04-20T00:39:50.862Z,6.70
2023-04-20T00:42:24.013Z,6.93
2023-04-20T00:44:57.034Z,7.03
2023-04-20T00:47:30.092Z,6.50
2023-04-20T00:50:03.441Z,7.20
2023-04-20T00:52:36.726Z,8.40
2023-04-20T00:55:11.878Z,7.40
2023-04-20T00:57:45.876Z,7.50
2023-04-20T01:00:20.172Z,7.17
2023-04-20T01:02:53.309Z,7.07
2023-04-20T01:05:26.986Z,7.10
2023-04-20T01:08:00.037Z,6.73
2023-04-20T01:10:34.655Z,6.10
2023-04-20T01:13:07.708Z,6.70
2023-04-20T01:15:40.761Z,7.40
2023-04-20T01:18:13.860Z,7.37
2023-04-20T01:20:47.936Z,6.47
2023-04-20T01:23:22.420Z,6.83
2023-04-20T01:25:55.433Z,7.50
2023-04-20T01:28:28.450Z,7.97
2023-04-20T01:31:01.900Z,7.00
2023-04-20T01:33:35.205Z,6.87
2023-04-20T01:36:09.863Z,7.20
2023-04-20T01:38:44.322Z,7.40
2023-04-20T01:41:17.533Z,7.53
2023-04-20T01:43:50.557Z,7.90
2023-04-20T01:46:23.711Z,8.13
2023-04-20T01:48:56.730Z,7.70
2023-04-20T01:51:29.730Z,8.83
2023-04-20T01:54:04.880Z,8.27
2023-04-20T01:56:37.898Z,8.20
2023-04-20T01:59:10.953Z,8.70
2023-04-20T02:01:43.998Z,9.17
2023-04-20T02:04:17.134Z,8.20
2023-04-20T02:06:50.347Z,7.83
2023-04-20T02:09:24.747Z,8.43
2023-04-20T02:11:58.172Z,8.00
2023-04-20T02:14:31.194Z,8.97
2023-04-20T02:17:04.586Z,9.37
2023-04-20T02:19:37.919Z,9.73
2023-04-20T02:22:10.948Z,9.73
2023-04-20T02:24:45.335Z,10.40
2023-04-20T02:27:18.351Z,9.53
2023-04-20T02:29:51.364Z,11.03
2023-04-20T02:32:24.529Z,10.77
2023-04-20T02:34:57.631Z,10.63
2023-04-20T02:37:31.234Z,10.97
2023-04-20T02:40:08.871Z,10.23
2023-04-20T02:42:42.334Z,9.63
2023-04-20T02:45:15.434Z,9.43
2023-04-20T02:47:48.492Z,9.47
2023-04-20T02:50:21.864Z,9.47
2023-04-20T02:52:54.899Z,9.23
2023-04-20T02:55:29.259Z,9.40
2023-04-20T02:58:02.276Z,9.00
2023-04-20T03:00:35.537Z,9.90
2023-04-20T03:03:08.683Z,9.40
2023-04-20T03:05:41.876Z,10.20
2023-04-20T03:08:14.873Z,10.23
2023-04-20T03:10:49.344Z,10.37
2023-04-20T03:13:22.435Z,10.37
2023-04-20T03:15:55.503Z,10.53
2023-04-20T03:18:28.740Z,10.57
2023-04-20T03:21:01.861Z,10.93
2023-04-20T03:23:35.000Z,10.33
2023-04-20T03:26:09.381Z,11.47
2023-04-20T03:28:43.088Z,11.93
2023-04-20T03:31:16.084Z,9.67
2023-04-20T03:33:49.076Z,10.80
2023-04-20T03:36:22.150Z,10.53
2023-04-20T03:38:55.484Z,10.87
2023-04-20T03:41:29.888Z,10.67
2023-04-20T03:44:02.967Z,10.13
2023-04-20T03:46:36.423Z,11.10
2023-04-20T03:49:09.432Z,10.60
2023-04-20T03:51:42.442Z,10.90
2023-04-20T03:54:15.447Z,11.70
2023-04-20T03:56:50.509Z,10.43
2023-04-20T03:59:23.567Z,10.13
2023-04-20T04:01:56.651Z,10.57
2023-04-20T04:04:30.115Z,10.93
2023-04-20T04:07:03.344Z,11.17
2023-04-20T04:09:36.413Z,11.33
2023-04-20T04:12:10.963Z,10.70
2023-04-20T04:14:43.998Z,11.07
2023-04-20T04:17:17.143Z,11.90
2023-04-20T04:19:50.221Z,11.20
2023-04-20T04:22:23.282Z,11.57
2023-04-20T04:24:56.355Z,12.30
2023-04-20T04:27:34.870Z,11.00
2023-04-20T04:30:11.085Z,11.77
2023-04-20T04:32:44.768Z,11.17
2023-04-20T04:35:18.132Z,12.37
2023-04-20T04:37:52.726Z,11.33
2023-04-20T04:40:26.111Z,11.57
2023-04-20T04:43:00.946Z,12.17
2023-04-20T04:45:34.021Z,11.83
2023-04-20T04:48:09.033Z,12.57
2023-04-20T04:50:42.412Z,12.80
2023-04-20T04:53:15.494Z,13.10
2023-04-20T04:55:48.497Z,12.30
2023-04-20T04:58:22.970Z,12.10
2023-04-20T05:00:56.009Z,11.87
2023-04-20T05:03:29.146Z,11.60
2023-04-20T05:06:02.347Z,11.63
2023-04-20T05:08:35.826Z,12.23
2023-04-20T05:11:08.850Z,12.20
2023-04-20T05:13:43.912Z,11.20
2023-04-20T05:16:17.457Z,11.80
2023-04-20T05:18:50.652Z,12.37
2023-04-20T05:21:23.834Z,11.90
2023-04-20T05:23:56.920Z,11.93
2023-04-20T05:26:29.979Z,11.00
2023-04-20T05:29:04.396Z,11.20
2023-04-20T05:31:37.405Z,10.27
2023-04-20T05:34:10.897Z,10.00
2023-04-20T05:36:44.184Z,11.73
2023-04-20T05:39:17.548Z,10.40
2023-04-20T05:41:50.749Z,11.17
2023-04-20T05:44:25.196Z,10.93
2023-04-20T05:46:58.341Z,10.73
2023-04-20T05:49:31.496Z,11.73
2023-04-20T05:52:04.767Z,11.03
2023-04-20T05:54:37.818Z,11.17
2023-04-20T05:57:11.674Z,11.50
2023-04-20T05:59:46.702Z,10.67
2023-04-20T06:02:19.845Z,12.20
2023-04-20T06:04:53.748Z,11.23
2023-04-20T06:07:26.861Z,11.50
2023-04-20T06:10:00.829Z,11.10
2023-04-20T06:12:34.085Z,10.93
2023-04-20T06:15:10.956Z,10.37
2023-04-20T06:17:44.190Z,10.47
2023-04-20T06:20:17.415Z,11.17
2023-04-20T06:22:50.946Z,11.00
2023-04-20T06:25:24.189Z,11.40
2023-04-20T06:27:57.343Z,12.53
2023-04-20T06:30:32.965Z,12.73
2023-04-20T06:33:06.506Z,11.97
2023-04-20T06:35:41.338Z,13.30
2023-04-20T06:38:14.356Z,12.40
2023-04-20T06:40:47.579Z,11.93
2023-04-20T06:43:20.736Z,11.73
2023-04-20T06:45:55.157Z,11.70
2023-04-20T06:48:31.960Z,11.60
2023-04-20T06:51:06.191Z,12.20
2023-04-20T06:53:39.190Z,14.80
2023-04-20T06:56:12.432Z,14.90
2023-04-20T06:58:45.555Z,12.73
2023-04-20T07:01:20.258Z,12.33
2023-04-20T07:03:53.531Z,12.90
2023-04-20T07:06:27.532Z,14.47
2023-04-20T07:09:00.714Z,13.33
2023-04-20T07:11:33.805Z,11.37
2023-04-20T07:14:06.822Z,11.70
2023-04-20T07:16:41.299Z,11.90
2023-04-20T07:19:14.392Z,11.17
2023-04-20T07:21:47.666Z,11.43
2023-04-20T07:24:20.781Z,15.10
2023-04-20T07:26:55.600Z,12.73
2023-04-20T07:29:28.662Z,13.80
2023-04-20T07:32:03.137Z,13.03
2023-04-20T07:34:36.206Z,13.37
2023-04-20T07:37:09.204Z,13.27
2023-04-20T07:39:42.208Z,12.37
2023-04-20T07:42:15.211Z,11.97
2023-04-20T07:44:48.229Z,11.87
2023-04-20T07:47:22.984Z,12.03
2023-04-20T07:49:57.522Z,12.50
2023-04-20T07:52:30.660Z,12.67
2023-04-20T07:55:03.814Z,12.23
2023-04-20T07:57:37.064Z,12.53
2023-04-20T08:00:12.936Z,12.87
2023-04-20T08:02:47.607Z,12.77
2023-04-20T08:05:21.096Z,12.53
2023-04-20T08:07:54.259Z,12.50
2023-04-20T08:10:27.246Z,12.33
2023-04-20T08:13:00.263Z,13.37
2023-04-20T08:15:33.256Z,12.33
2023-04-20T08:18:07.673Z,12.37
2023-04-20T08:20:40.748Z,12.63
2023-04-20T08:23:14.271Z,12.23
2023-04-20T08:25:47.378Z,13.33
2023-04-20T08:28:32.972Z,12.07
2023-04-20T08:31:07.416Z,12.37
2023-04-20T08:33:41.931Z,12.17
2023-04-20T08:36:15.176Z,13.40
2023-04-20T08:38:55.822Z,15.27
2023-04-20T08:41:28.854Z,23.67
2023-04-20T08:44:01.831Z,14.50
2023-04-20T08:46:35.476Z,12.80
2023-04-20T08:49:13.749Z,12.20
2023-04-20T08:51:48.538Z,12.13
2023-04-20T08:54:22.613Z,12.70
2023-04-20T08:56:57.027Z,13.23
2023-04-20T08:59:30.902Z,12.93
2023-04-20T09:02:12.050Z,12.93
2023-04-20T09:04:48.998Z,12.27
2023-04-20T09:07:22.756Z,12.67
2023-04-20T09:09:56.646Z,12.27
2023-04-20T09:12:29.882Z,12.23
2023-04-20T09:15:04.412Z,12.43
2023-04-20T09:17:40.766Z,11.70
2023-04-20T09:20:15.918Z,12.27
2023-04-20T09:22:50.870Z,12.47
2023-04-20T09:25:28.754Z,12.30
2023-04-20T09:28:02.686Z,12.03
2023-04-20T09:30:40.175Z,12.70
2023-04-20T09:33:14.644Z,12.63
2023-04-20T09:35:49.229Z,12.40
2023-04-20T09:38:28.003Z,12.20
2023-04-20T09:41:01.864Z,13.23
2023-04-20T09:43:37.110Z,12.87
2023-04-20T09:46:10.595Z,12.57
2023-04-20T09:48:43.725Z,12.60
2023-04-20T09:51:18.676Z,11.00
2023-04-20T09:53:53.035Z,13.23
2023-04-20T09:56:27.793Z,12.93
2023-04-20T09:59:01.785Z,12.70
2023-04-20T10:01:38.166Z,12.67
2023-04-20T10:04:14.322Z,12.70
2023-04-20T10:06:57.926Z,13.53
2023-04-20T10:09:33.242Z,13.40
2023-04-20T10:12:12.300Z,13.83
2023-04-20T10:14:57.028Z,13.77
2023-04-20T10:17:34.300Z,13.50
2023-04-20T10:20:21.219Z,13.57
2023-04-20T10:23:07.894Z,14.27
2023-04-20T10:25:41.605Z,19.73
2023-04-20T10:28:14.623Z,15.50
2023-04-20T10:30:53.301Z,15.90
2023-04-20T10:33:26.453Z,15.90
2023-04-20T10:35:59.475Z,15.67
2023-04-20T10:38:36.630Z,15.20
2023-04-20T10:41:10.231Z,15.17
2023-04-20T10:43:43.370Z,15.97
2023-04-20T10:46:17.950Z,14.33
2023-04-20T10:48:56.028Z,14.47
2023-04-20T10:51:29.733Z,14.00
2023-04-20T10:54:07.551Z,14.97
2023-04-20T10:56:42.292Z,13.87
2023-04-20T10:59:18.103Z,13.30
2023-04-20T11:01:53.998Z,13.07
2023-04-20T11:04:35.583Z,13.37
2023-04-20T11:07:13.053Z,12.93
2023-04-20T11:09:55.773Z,12.30
2023-04-20T11:12:39.432Z,12.20
2023-04-20T11:15:13.692Z,11.77
2023-04-20T11:17:47.069Z,11.40
2023-04-20T11:20:20.219Z,12.93
2023-04-20T11:22:59.722Z,11.57
2023-04-20T11:25:34.141Z,11.77
2023-04-20T11:28:08.953Z,12.33
2023-04-20T11:30:42.383Z,12.23
2023-04-20T11:33:16.101Z,12.97
2023-04-20T11:35:49.462Z,12.27
2023-04-20T11:38:30.009Z,11.80
2023-04-20T11:41:07.647Z,11.37
2023-04-20T11:43:40.681Z,11.17
2023-04-20T11:46:18.500Z,11.57
2023-04-20T11:48:51.586Z,11.20
2023-04-20T11:51:24.660Z,11.33
2023-04-20T11:53:57.812Z,11.87
2023-04-20T11:56:32.132Z,11.80
2023-04-20T11:59:05.363Z,12.73
2023-04-20T12:01:39.116Z,12.07
2023-04-20T12:09:35.957Z,12.73
2023-04-20T12:12:10.326Z,11.93
2023-04-20T12:14:43.237Z,12.30
2023-04-20T12:17:16.215Z,11.30
2023-04-20T12:19:49.198Z,12.57
2023-04-20T12:22:23.144Z,12.07
2023-04-20T12:24:56.406Z,11.40
2023-04-20T12:27:30.770Z,12.67
2023-04-20T12:30:04.426Z,12.53
2023-04-20T12:32:37.391Z,11.20
2023-04-20T12:35:10.598Z,11.63
2023-04-20T12:37:43.512Z,12.70
2023-04-20T12:40:16.476Z,12.53
2023-04-20T12:42:50.808Z,12.60
2023-04-20T12:45:24.072Z,11.63
2023-04-20T12:47:58.491Z,11.97
2023-04-20T12:50:33.386Z,12.97
2023-04-20T12:53:06.546Z,12.00
2023-04-20T12:55:39.549Z,12.90
2023-04-20T12:58:16.121Z,12.43
2023-04-20T13:00:49.077Z,11.20
2023-04-20T13:03:22.234Z,11.13
2023-04-20T13:05:55.477Z,11.20
2023-04-20T13:08:28.498Z,12.27
2023-04-20T13:11:01.512Z,12.03
2023-04-20T13:13:35.853Z,11.07
2023-04-20T13:16:09.182Z,11.10
2023-04-20T13:18:42.295Z,10.40
2023-04-20T13:21:15.325Z,10.10
2023-04-20T13:23:48.440Z,9.57
2023-04-20T13:26:21.488Z,8.67
2023-04-20T13:28:57.494Z,7.50
2023-04-20T13:31:31.151Z,7.37
2023-04-20T13:34:04.313Z,7.73
2023-04-20T13:36:37.311Z,7.43
2023-04-20T13:39:10.906Z,7.80
2023-04-20T13:41:44.108Z,7.10
2023-04-20T13:44:18.736Z,7.87
2023-04-20T13:46:52.112Z,7.63
2023-04-20T13:49:25.113Z,7.37
2023-04-20T13:51:58.115Z,9.53
2023-04-20T13:54:31.106Z,8.83
2023-04-20T13:57:04.333Z,11.53
2023-04-20T13:59:38.699Z,12.33
2023-04-20T14:02:11.766Z,9.27
2023-04-20T14:04:44.818Z,9.03
2023-04-20T14:07:17.927Z,8.57
2023-04-20T14:09:52.698Z,8.17
2023-04-20T14:12:27.035Z,7.83
2023-04-20T14:15:02.282Z,8.07
2023-04-20T14:17:35.403Z,8.10
2023-04-20T14:20:10.489Z,7.43
2023-04-20T14:22:43.777Z,7.80
2023-04-20T14:25:16.752Z,7.93
2023-04-20T14:27:49.748Z,8.60
2023-04-20T14:30:24.362Z,7.83
2023-04-20T14:32:59.243Z,8.23
2023-04-20T14:35:32.331Z,8.00
2023-04-20T14:38:05.387Z,8.30
2023-04-20T14:40:38.375Z,8.43
2023-04-20T14:43:11.398Z,8.57
2023-04-20T14:45:46.339Z,8.57
2023-04-20T14:48:19.313Z,9.30
2023-04-20T14:50:52.337Z,9.87
2023-04-20T14:53:25.383Z,8.63
2023-04-20T14:55:58.483Z,8.80
2023-04-20T14:58:31.504Z,8.63
2023-04-20T15:01:06.235Z,9.33
2023-04-20T15:03:39.438Z,8.60
2023-04-20T15:06:12.863Z,8.73
2023-04-20T15:08:46.558Z,8.17
2023-04-20T15:11:19.562Z,9.23
2023-04-20T15:13:52.934Z,8.37
2023-04-20T15:16:27.233Z,7.70
2023-04-20T15:19:00.235Z,8.90
2023-04-20T15:21:33.239Z,8.57
2023-04-20T15:24:07.228Z,8.27
2023-04-20T15:26:40.197Z,8.37
2023-04-20T15:29:13.187Z,8.37
2023-04-20T15:31:47.537Z,8.80
2023-04-20T15:34:20.919Z,9.03
2023-04-20T15:36:54.297Z,9.17
2023-04-20T15:39:27.290Z,9.30
2023-04-20T15:42:00.333Z,9.30
2023-04-20T15:44:33.355Z,8.77
2023-04-20T15:47:07.765Z,9.03
2023-04-20T15:49:41.439Z,10.60
2023-04-20T15:52:14.450Z,10.77
2023-04-20T15:54:48.577Z,11.50
2023-04-20T15:57:21.684Z,10.97
2023-04-20T15:59:54.740Z,11.83
2023-04-20T16:02:29.254Z,11.60
2023-04-20T16:05:02.663Z,13.03
2023-04-20T16:07:36.284Z,12.70
2023-04-20T16:10:10.956Z,14.27
2023-04-20T16:12:43.956Z,13.13
2023-04-20T16:15:17.403Z,16.07
2023-04-20T16:17:51.797Z,20.10
2023-04-20T16:20:24.823Z,19.97
2023-04-20T16:22:57.850Z,18.67
2023-04-20T16:25:32.414Z,16.87
2023-04-20T16:28:05.544Z,16.90
2023-04-20T16:30:38.592Z,15.87
2023-04-20T16:33:12.985Z,15.87
2023-04-20T16:35:46.277Z,15.40
2023-04-20T16:38:20.119Z,15.83
2023-04-20T16:40:53.071Z,18.37
2023-04-20T16:43:26.239Z,18.10
2023-04-20T16:46:00.006Z,19.10
2023-04-20T16:48:34.398Z,16.70
2023-04-20T16:51:08.419Z,17.33
2023-04-20T16:53:41.381Z,17.33
2023-04-20T16:56:14.396Z,17.07
2023-04-20T16:58:47.426Z,15.17
2023-04-20T17:01:20.547Z,17.97
2023-04-20T17:03:55.147Z,16.97
2023-04-20T17:06:28.405Z,18.97
2023-04-20T17:09:06.748Z,19.47
2023-04-20T17:11:39.959Z,20.10
2023-04-20T17:14:13.034Z,21.27
2023-04-20T17:16:46.060Z,22.73
2023-04-20T17:19:20.532Z,22.90
2023-04-20T17:21:53.675Z,35.30
2023-04-20T17:24:26.683Z,27.37
2023-04-20T17:26:59.851Z,23.07
2023-04-20T17:29:36.060Z,22.47
2023-04-20T17:32:09.146Z,23.13
2023-04-20T17:34:48.035Z,22.33
2023-04-20T17:37:22.299Z,21.13
2023-04-20T17:39:55.886Z,24.63
2023-04-20T17:42:29.001Z,27.17
2023-04-20T17:45:02.008Z,26.97
2023-04-20T17:47:35.019Z,24.30
2023-04-20T17:50:11.739Z,24.80
2023-04-20T17:52:44.764Z,23.87
2023-04-20T17:55:17.914Z,24.17
2023-04-20T17:57:51.040Z,23.27
2023-04-20T18:00:24.012Z,20.83
2023-04-20T18:02:57.233Z,22.10
2023-04-20T18:05:31.617Z,23.47
2023-04-20T18:08:04.862Z,23.00
2023-04-20T18:10:38.238Z,22.97
2023-04-20T18:13:11.348Z,22.07
2023-04-20T18:15:44.540Z,21.90
2023-04-20T18:18:21.273Z,20.27
2023-04-20T18:20:55.639Z,20.63
2023-04-20T18:23:29.961Z,21.93
2023-04-20T18:26:03.190Z,21.13
2023-04-20T18:28:36.220Z,21.27
2023-04-20T18:31:09.275Z,21.53
2023-04-20T18:33:42.306Z,22.03
2023-04-20T18:36:17.438Z,22.50
2023-04-20T18:38:51.363Z,22.23
2023-04-20T18:41:25.649Z,25.47
2023-04-20T18:43:58.856Z,28.50
2023-04-20T18:46:32.333Z,24.57
2023-04-20T18:49:06.159Z,21.63
2023-04-20T18:51:40.567Z,23.83
2023-04-20T18:54:13.638Z,25.13
2023-04-20T18:56:47.735Z,25.00
2023-04-20T18:59:20.996Z,25.27
2023-04-20T19:01:54.228Z,24.33
2023-04-20T19:04:27.608Z,29.37
2023-04-20T19:07:02.138Z,27.67
2023-04-20T19:09:35.279Z,25.50
2023-04-20T19:12:08.374Z,24.33
2023-04-20T19:14:41.398Z,23.67
2023-04-20T19:17:14.519Z,25.00
2023-04-20T19:19:48.069Z,23.43
2023-04-20T19:22:22.499Z,23.07
2023-04-20T19:24:55.485Z,22.77
2023-04-20T19:27:28.532Z,22.20
2023-04-20T19:30:01.550Z,23.60
2023-04-20T19:32:34.717Z,24.17
2023-04-20T19:35:08.092Z,24.23
2023-04-20T19:37:42.487Z,25.07
2023-04-20T19:40:16.187Z,25.80
2023-04-20T19:42:50.627Z,23.57
2023-04-20T19:45:24.531Z,24.93
2023-04-20T19:47:57.598Z,25.70
2023-04-20T19:50:30.933Z,25.97
2023-04-20T19:53:05.396Z,25.33
2023-04-20T19:55:38.484Z,23.67
2023-04-20T19:58:11.534Z,25.90
2023-04-20T20:00:44.770Z,26.67
2023-04-20T20:03:18.172Z,25.17
2023-04-20T20:05:51.252Z,25.10
2023-04-20T20:08:25.580Z,30.87
2023-04-20T20:10:58.553Z,32.00
2023-04-20T20:13:31.496Z,29.27
2023-04-20T20:16:04.773Z,28.70
2023-04-20T20:18:38.200Z,29.27
2023-04-20T20:21:11.339Z,28.90
2023-04-20T20:23:46.078Z,27.13
2023-04-20T20:26:19.073Z,31.17
2023-04-20T20:28:52.204Z,29.37
2023-04-20T20:31:25.259Z,31.23
2023-04-20T20:33:58.304Z,72.67
2023-04-20T20:36:31.840Z,48.33
2023-04-20T20:39:06.639Z,42.33
2023-04-20T20:41:42.422Z,38.97
2023-04-20T20:44:15.524Z,35.33
2023-04-20T20:46:48.557Z,59.03
2023-04-20T20:49:21.643Z,53.10
2023-04-20T20:51:54.743Z,71.63
2023-04-20T20:54:29.054Z,55.20
2023-04-20T20:57:02.945Z,34.83
2023-04-20T20:59:36.164Z,35.60
2023-04-20T21:02:09.173Z,31.97
2023-04-20T21:04:42.248Z,29.43
2023-04-20T21:07:15.287Z,26.03
2023-04-20T21:09:49.657Z,31.13
2023-04-20T21:12:22.743Z,29.87
2023-04-20T21:14:55.698Z,32.87
2023-04-20T21:17:28.658Z,35.17
2023-04-20T21:20:02.627Z,31.23
2023-04-20T21:22:35.800Z,28.63
2023-04-20T21:25:10.768Z,29.23
2023-04-20T21:27:43.754Z,27.53
2023-04-20T21:30:16.785Z,28.87
2023-04-20T21:32:49.763Z,29.73
2023-04-20T21:35:23.145Z,29.33
2023-04-20T21:37:56.226Z,27.83
2023-04-20T21:40:30.603Z,27.83
2023-04-20T21:43:03.563Z,28.13
2023-04-20T21:45:37.374Z,27.00
2023-04-20T21:48:10.439Z,27.67
2023-04-20T21:50:43.474Z,26.67
2023-04-20T21:53:16.519Z,26.77
2023-04-20T21:55:50.869Z,28.20
2023-04-20T21:58:23.847Z,39.10
2023-04-20T22:00:56.914Z,38.37
2023-04-20T22:03:31.336Z,32.20
2023-04-20T22:06:04.777Z,29.23
2023-04-20T22:08:39.799Z,28.03
2023-04-20T22:11:14.478Z,25.90
2023-04-20T22:13:47.443Z,28.77
2023-04-20T22:16:21.794Z,24.83
2023-04-20T22:18:54.974Z,26.60
2023-04-20T22:21:28.251Z,26.53
2023-04-20T22:24:01.283Z,26.73
2023-04-20T22:26:35.832Z,28.30
2023-04-20T22:29:08.882Z,28.90
2023-04-20T22:31:41.970Z,25.10
2023-04-20T22:34:15.077Z,24.50
2023-04-20T22:36:48.110Z,27.30
2023-04-20T22:39:21.301Z,27.43
2023-04-20T22:41:55.842Z,27.27
2023-04-20T22:44:28.924Z,29.17
2023-04-20T22:47:03.199Z,32.33
2023-04-20T22:49:37.481Z,26.87
2023-04-20T22:52:10.877Z,29.70
2023-04-20T22:54:47.875Z,29.03
2023-04-20T22:57:22.565Z,32.23
2023-04-20T22:59:55.561Z,28.20
2023-04-20T23:02:28.569Z,28.20
2023-04-20T23:05:01.641Z,27.73
2023-04-20T23:07:34.673Z,30.57
2023-04-20T23:10:10.808Z,30.17
2023-04-20T23:12:46.918Z,30.27
2023-04-20T23:15:20.044Z,23.60
2023-04-20T23:17:53.079Z,27.53
2023-04-20T23:20:26.608Z,24.73
2023-04-20T23:22:59.628Z,28.37
2023-04-20T23:25:32.629Z,24.30
2023-04-20T23:28:07.067Z,23.33
2023-04-20T23:30:40.112Z,20.43
2023-04-20T23:33:13.097Z,21.37
2023-04-20T23:35:46.157Z,21.37
2023-04-20T23:38:19.170Z,22.03
2023-04-20T23:40:52.144Z,21.37
2023-04-20T23:43:26.758Z,22.70
2023-04-20T23:45:59.992Z,19.77
2023-04-20T23:48:33.158Z,23.90
2023-04-20T23:51:06.578Z,25.90
2023-04-20T23:53:40.004Z,27.43
2023-04-20T23:56:13.937Z,26.70
2023-04-20T23:58:48.256Z,24.17
